• Join FlightAware (Why Join?)
  • Login
  • US Flag 
04:39AM EST


 

Airport Tracker/Info


-or-


 

Live Flight TrackerFlight Track Log ✈ N15FS ✈ 31-Jan-2014 ✈ KFNL - KFNL

Flight Track Log - Related Links

Times and Time Zones

All times are in EST time to prevent confusion due to time zone crossing. See the N15FS flight status page for this flight to view local times or setup timezone preferences in your user account.

Time Position Orientation Groundspeed Altitude Reporting Facility
EST Latitude Longitude Course Direction KTS MPH feet Rate Location/Type
06:56PM 40.4667 -105.0167 37° Northeast 115 132 5,600  Level Denver TRACON
06:57PM 40.4833 -105.0000 37° Northeast 130 150 6,200 540 Climbing Denver TRACON
06:58PM 40.4622 -104.9650 128° Southeast 126 145 6,800 360 Climbing Denver Center
06:59PM 40.4394 -104.9206 124° Southeast 121 139 7,100  Climbing Denver Center
07:00PM 40.4158 -104.8764 125° Southeast 135 155 6,900 -120 Descending Denver Center
07:01PM 40.3947 -104.8408 128° Southeast 128 147 6,900  Level Denver Center
07:02PM 40.3581 -104.8478 188° South 132 152 7,000  Climbing Denver Center
07:03PM 40.3342 -104.8894 233° Southwest 149 171 7,000  Level Denver Center
07:04PM 40.3650 -104.9122 331° Northwest 136 157 7,000  Level Denver Center
07:05PM 40.4064 -104.9153 357° North 138 159 7,000 -60 Level Denver Center
07:06PM 40.4428 -104.8967 21° North 140 161 6,900  Descending Denver Center
07:07PM 40.4731 -104.8681 36° Northeast 140 161 7,000 -180 Climbing Denver Center
07:08PM 40.4639 -104.8122 102° East 146 168 6,600 -360 Descending Denver Center
07:09PM 40.4531 -104.7603 105° East 147 169 6,300 -420 Descending Denver Center
07:10PM 40.4458 -104.7158 102° East 132 152 5,800 -540 Descending Denver Center
07:11PM 40.4361 -104.6750 107° East 114 131 5,200 -420 Descending Denver Center
07:12PM 40.4281 -104.6364 105° East 111 128 5,000 180 Descending Denver Center
07:13PM 40.4211 -104.5908 101° East 116 133 5,600 480 Climbing Denver Center
07:14PM 40.3978 -104.5592 134° Southeast 125 144 6,100 480 Climbing Denver Center
07:15PM 40.3717 -104.5303 140° Southeast 123 142 6,600 480 Climbing Denver Center
07:16PM 40.3400 -104.5036 147° Southeast 125 144 7,200 480 Climbing Denver Center
07:17PM 40.3117 -104.4794 147° Southeast 123 142 7,600 360 Climbing Denver Center
07:18PM 40.2808 -104.4539 148° Southeast 129 148 8,000 180 Climbing Denver Center
07:19PM 40.2422 -104.4225 148° Southeast 148 170 8,000  Level Denver Center
07:21PM 40.2075 -104.3875 142° Southeast 156 180 8,000  Level Denver Center
07:22PM 40.1678 -104.3553 148° Southeast 156 180 8,000  Level Denver Center
07:23PM 40.1378 -104.3367 155° Southeast 155 178 8,100  Climbing Denver Center
07:24PM 40.0925 -104.2989 147° Southeast 156 180 8,000 -300 Descending Denver Center
07:25PM 40.0456 -104.2806 163° South 162 186 7,600 -360 Descending Denver Center
07:26PM 40.0014 -104.2628 163° South 165 190 7,300 -300 Descending Denver Center
07:27PM 39.9578 -104.2550 172° South 160 184 7,100 -60 Descending Denver Center
07:28PM 39.9125 -104.2531 178° South 153 176 7,200  Climbing Denver Center
07:29PM 39.8719 -104.2528 180° South 147 169 7,200 -60 Level Denver Center
07:30PM 39.8269 -104.2522 179° South 150 173 7,100  Descending Denver Center
07:31PM 39.7914 -104.2653 196° South 162 186 7,200  Climbing Denver Center
07:32PM 39.7900 -104.3136 268° West 135 155 7,200  Level Denver Center
07:33PM 39.7914 -104.3639 272° West 130 150 7,200  Level Denver Center
07:34PM 39.7903 -104.4106 268° West 130 150 7,200 -120 Level Denver Center
07:35PM 39.7917 -104.4558 272° West 125 144 7,000 -420 Descending Denver Center
07:36PM 39.7919 -104.5003 270° West 113 130 6,400 -120 Descending Denver Center
07:37PM 39.7658 -104.4997 179° South 121 139 6,800 360 Climbing Denver Center
07:38PM 39.7294 -104.4644 143° Southeast 150 173 7,200 420 Climbing Denver Center
07:39PM 39.7008 -104.4325 139° Southeast 137 158 7,700 420 Climbing Denver Center
07:40PM 39.6861 -104.3922 115° Southeast 123 142 8,100 180 Climbing Denver Center
07:41PM 39.6697 -104.3458 115° Southeast 131 151 8,100 240 Level Denver Center
07:42PM 39.6308 -104.3444 178° South 146 168 8,600 420 Climbing Denver Center
07:43PM 39.5894 -104.3467 182° South 139 160 9,000 180 Climbing Denver Center
07:44PM 39.5472 -104.3483 182° South 149 171 9,000  Level Denver Center
07:45PM 39.5044 -104.3533 185° South 154 177 9,100  Climbing Denver Center
07:46PM 39.4569 -104.3542 181° South 158 182 9,100 -60 Level Denver Center
07:47PM 39.4131 -104.3636 189° South 160 184 9,000  Descending Denver Center
07:48PM 39.3794 -104.4078 225° Southwest 166 191 9,100  Climbing Denver Center
07:49PM 39.3572 -104.4603 241° Southwest 166 191 9,000 -60 Descending Denver Center
07:50PM 39.3375 -104.5142 245° Southwest 166 191 9,000  Level Denver Center
07:51PM 39.3272 -104.5769 258° West 166 191 9,000  Level Denver Center
07:52PM 39.3136 -104.6333 253° West 166 191 9,000  Level Denver Center
07:54PM 39.3031 -104.6947 257° West 163 188 9,000  Level Denver Center
07:55PM 39.3039 -104.7514 271° West 159 183 9,100  Climbing Denver Center
07:56PM 39.3228 -104.8003 297° West 155 178 9,000 -120 Descending Denver Center
07:57PM 39.3628 -104.8244 335° Northwest 146 168 8,900 -300 Descending Denver Center
07:58PM 39.4006 -104.8433 339° North 145 167 8,500 -420 Descending Denver Center
07:59PM 39.4381 -104.8436 360° North 127 146 8,100 -360 Descending Denver Center
08:00PM 39.4678 -104.8436 360° North 109 125 7,800 -420 Descending Denver Center
08:01PM 39.4958 -104.8464 356° North 102 117 7,300 -600 Descending Denver Center
08:02PM 39.5289 -104.8478 358° North 111 128 6,600 -540 Descending Denver Center
08:03PM 39.5569 -104.8497 357° North 103 119 6,200 120 Descending Denver Center
08:04PM 39.5897 -104.8553 353° North 112 129 6,900 660 Climbing Denver Center
08:05PM 39.6208 -104.8581 356° North 112 129 7,600 480 Climbing Denver Center
08:06PM 39.6567 -104.8617 356° North 120 138 8,000 240 Climbing Denver Center
08:07PM 39.6922 -104.8731 346° North 130 150 8,100  Climbing Denver Center
08:08PM 39.7294 -104.8986 332° Northwest 149 171 8,000 -120 Descending Denver Center
08:09PM 39.7694 -104.9189 339° North 141 162 7,900 -180 Descending Denver Center
08:10PM 39.8075 -104.9383 339° North 147 169 7,700 -420 Descending Denver Center
08:11PM 39.8333 -104.9719 315° West 132 152 7,100 -360 Descending Denver Center
08:12PM 39.8517 -105.0083 303° West 113 130 7,000 -180 Descending Denver Center
08:13PM 39.8694 -105.0403 306° West 110 127 6,800 -480 Descending Denver Center
08:14PM 39.8886 -105.0778 304° West 114 131 6,100 -420 Descending Denver Center
08:15PM 39.9036 -105.1061 305° West 97 112 6,000 360 Descending Denver Center
08:16PM 39.9311 -105.0883 26° Northeast 113 130 6,900 720 Climbing Denver Center
08:17PM 39.9550 -105.0633 39° Northeast 110 127 7,500 540 Climbing Denver Center
08:18PM 39.9786 -105.0369 41° Northeast 113 130 8,100 240 Climbing Denver Center
08:19PM 39.9969 -104.9892 63° Northeast 136 157 8,000  Descending Denver Center
08:20PM 40.0144 -104.9428 64° Northeast 144 166 8,100  Climbing Denver Center
08:21PM 40.0414 -104.8972 52° Northeast 148 170 8,000 -60 Descending Denver Center
08:22PM 40.0642 -104.8519 57° Northeast 149 171 8,000 -60 Level Denver Center
08:23PM 40.0900 -104.8114 50° Northeast 146 168 7,900 -60 Descending Denver Center
08:24PM 40.1181 -104.7703 48° Northeast 141 162 7,900 -300 Level Denver Center
08:26PM 40.1447 -104.7294 49° Northeast 147 169 7,400 -540 Descending Denver Center
08:27PM 40.1747 -104.6856 48° Northeast 150 173 6,900 -180 Descending Denver Center
08:28PM 40.2053 -104.6656 27° Northeast 122 140 7,100  Climbing Denver Center
08:29PM 40.2342 -104.6481 25° Northeast 116 133 7,000 -60 Descending Denver Center
08:30PM 40.2644 -104.6256 30° Northeast 116 133 7,000  Level Denver Center
08:31PM 40.2958 -104.6250 North 114 131 7,000 -120 Level Denver Center
08:32PM 40.3303 -104.6264 358° North 116 133 6,800 -480 Descending Denver Center
08:33PM 40.3619 -104.6281 358° North 115 132 6,100 -720 Descending Denver Center
08:34PM 40.3947 -104.6289 359° North 111 128 5,400 -540 Descending Denver Center
08:35PM 40.4244 -104.6317 356° North 103 119 5,000  Descending Denver Center
08:36PM 40.4522 -104.6317 360° North 104 120 5,400 480 Climbing Denver Center
08:37PM 40.4728 -104.5953 53° Northeast 116 133 6,100 660 Climbing Denver Center
08:38PM 40.4936 -104.5636 49° Northeast 116 133 6,800 420 Climbing Denver Center
08:39PM 40.5239 -104.5522 16° North 112 129 7,000 60 Climbing Denver Center
08:40PM 40.5458 -104.5367 28° Northeast 142 163 7,000  Level Denver Center
08:41PM 40.5119 -104.5419 187° South 133 153 7,100  Climbing Denver Center
08:42PM 40.5039 -104.5842 256° West 137 158 7,100 -60 Level Denver Center
08:43PM 40.5356 -104.5678 21° North 127 146 7,000 -60 Descending Denver Center
08:44PM 40.5592 -104.5358 46° Northeast 139 160 7,000  Level Denver Center
08:45PM 40.5219 -104.5425 188° South 141 162 7,000  Level Denver Center
08:46PM 40.5031 -104.5789 236° Southwest 142 163 7,100  Climbing Denver Center
08:47PM 40.5364 -104.5619 21° North 133 153 7,000 -60 Descending Denver Center
08:48PM 40.5536 -104.5289 56° Northeast 154 177 7,000  Level Denver Center
08:49PM 40.5169 -104.5433 197° South 147 169 7,000  Level Denver Center
08:50PM 40.4933 -104.5828 232° Southwest 140 161 7,000 180 Level Denver Center
08:51PM 40.4892 -104.6356 264° West 136 157 7,400 180 Climbing Denver Center
08:52PM 40.4869 -104.6889 267° West 144 166 7,400 -60 Level Denver Center
08:53PM 40.4789 -104.7464 260° West 149 171 7,300  Descending Denver Center
08:54PM 40.4733 -104.8011 262° West 151 174 7,400  Climbing Denver Center
08:55PM 40.4672 -104.8533 261° West 148 170 7,300 -360 Descending Denver Center
08:56PM 40.4617 -104.9067 262° West 139 160 6,700 -480 Descending Denver Center
08:58PM 40.4572 -104.9514 263° West 129 148 6,400 -540 Descending Denver Center
08:59PM 40.4517 -104.9972 261° West 120 138 5,600 -180 Descending Denver Center
09:00PM 40.4494 -105.0469 267° West 116 133 6,100 480 Climbing Denver Center
09:01PM 40.4786 -105.0328 20° North 123 142 6,800 780 Climbing Denver Center
09:02PM 40.5042 -104.9994 45° Northeast 121 139 7,700 480 Climbing Denver Center
09:03PM 40.5383 -104.9625 39° Northeast 129 148 8,000 120 Climbing Denver Center
09:04PM 40.5681 -104.9208 47° Northeast 150 173 8,000 -60 Level Denver Center
09:05PM 40.6019 -104.8806 42° Northeast 153 176 7,900  Descending Denver Center
09:06PM 40.6372 -104.8622 22° Northeast 147 169 8,000  Climbing Denver Center
09:07PM 40.6697 -104.8703 349° North 130 150 8,000  Level Denver Center
09:08PM 40.6653 -104.9375 265° West 163 188 8,000  Level Denver Center
09:09PM 40.6631 -104.9919 267° West 152 175 8,000 -120 Level Denver Center
09:10PM 40.6558 -105.0506 261° West 152 175 7,800 -180 Descending Denver Center
09:11PM 40.6281 -105.0792 218° Southwest 125 144 7,700 -360 Descending Denver Center
09:12PM 40.5947 -105.0853 188° South 123 142 7,100 -300 Descending Denver Center
09:13PM 40.5658 -105.0689 157° South 112 129 7,200 60 Climbing Denver Center